Pagrindinis puslapis
METAR-TAF:

METAR-TAF

Oro uostai :

Singapūras, Singapūras

platuma: 01-22N, ilguma: 103-59E, Aukštis: 5 m

Dabartinis oras

Ataskaita buvo paskelbta 18 minutes, ne 23:30 UTC
Vėjas 8 kt iš Pietryčių
Temperatūra 28°C
Drėgmė 79%
Slėgis 1012 hPa
Matomumas 10 km arba daugiau
Mažai debesys ne aukštis 1800 ft
Su prošvaistėmis ne aukštis 30000 ft

METAR: WSSS 192330Z 14008KT 9999 FEW018 BKN300 28/24 Q1012 NOSIG

Laikas: 07:48 (23:48 UTC)

Prognozė

Ataskaita buvo paskelbta 48 minutes, ne 23:00 UTC
Prognozė galioja nuo 20 metu 00 UTC su 21 metu 06 UTC
Vėjas 10 kt iš Pietryčių
Matomumas: 7000 m
Mažai debesys ne aukštis 1500 ft
Išsisklaidę debesys ne aukštis 2000 ft

TAF: WSSS 192300Z 2000/2106 14010KT 7000 FEW015 SCT020

Orai ataskaitas ir orų prognozės (METAR, TAF).

turimą stotys yra geltonos ir raudonos taškus žemėlapyje.

Perkelti pele per norėdami pamatyti stoties vardą.

Tada spustelėkite, norėdami matyti oro stebėjimo ir prognozės.

Norėdami pakeisti žemėlapį: spustelėkite ant žalios mygtukų su juodo kryžiaus žemyn,; žalią mygtuką su brūkšneliu, jei norite nutolinti; arba žalių rodyklių gretimoms žemėlapius.


METAR-TAF: